Time,TemperatureF,DewpointF,PressureIn,WindDirection,WindDirectionDegrees,WindSpeedMPH,WindSpeedGustMPH,Humidity,HourlyPrecipIn,Conditions,Clouds,dailyrainin,SoftwareType,DateUTC
2013-03-20 00:02:00,14.5,8.1,30.60,SSE,159,0.0,2.0,75,0.00,,,0.00,meteohub,2013-03-20 07:02:00,
2013-03-20 00:07:00,14.4,7.9,30.60,SSE,159,0.0,2.0,75,0.00,,,0.00,meteohub,2013-03-20 07:07:00,
2013-03-20 00:12:00,14.2,8.2,30.60,SSE,159,0.0,2.0,77,0.00,,,0.00,meteohub,2013-03-20 07:12:00,
2013-03-20 00:17:00,14.4,8.8,30.60,SSE,159,0.0,2.0,78,0.00,,,0.00,meteohub,2013-03-20 07:17:00,
2013-03-20 00:22:00,14.5,9.0,30.60,SSE,159,1.0,2.0,78,0.00,,,0.00,meteohub,2013-03-20 07:22:00,
2013-03-20 00:27:00,15.1,10.0,30.60,SSE,159,0.0,2.0,80,0.00,,,0.00,meteohub,2013-03-20 07:27:00,
2013-03-20 00:32:00,14.4,7.5,30.60,SSE,159,0.0,4.0,74,0.00,,,0.00,meteohub,2013-03-20 07:32:00,
2013-03-20 00:42:00,13.8,8.2,30.60,SSE,159,0.0,4.0,78,0.00,,,0.00,meteohub,2013-03-20 07:42:00,
2013-03-20 00:47:00,13.6,8.1,30.60,SSE,159,0.0,1.0,78,0.00,,,0.00,meteohub,2013-03-20 07:47:00,
2013-03-20 00:52:00,13.5,8.2,30.60,SSE,159,0.0,1.0,79,0.00,,,0.00,meteohub,2013-03-20 07:52:00,
2013-03-20 00:57:00,13.5,8.4,30.60,SSE,159,0.0,1.0,80,0.00,,,0.00,meteohub,2013-03-20 07:57:00,
2013-03-20 01:02:00,13.5,9.0,30.59,SSE,159,0.0,0.0,82,0.00,,,0.00,meteohub,2013-03-20 08:02:00,
2013-03-20 01:07:00,13.5,8.8,30.60,SSE,159,0.0,0.0,81,0.00,,,0.00,meteohub,2013-03-20 08:07:00,
2013-03-20 01:12:00,13.5,8.2,30.60,SSE,159,0.0,1.0,79,0.00,,,0.00,meteohub,2013-03-20 08:12:00,
2013-03-20 01:17:00,13.1,6.6,30.60,SSE,159,0.0,2.0,75,0.00,,,0.00,meteohub,2013-03-20 08:17:00,
2013-03-20 01:22:00,12.7,6.6,30.60,SSE,159,0.0,2.0,76,0.00,,,0.00,meteohub,2013-03-20 08:22:00,
2013-03-20 01:27:00,12.6,7.3,30.61,SSE,159,0.0,2.0,79,0.00,,,0.00,meteohub,2013-03-20 08:27:00,
2013-03-20 01:32:00,12.4,7.2,30.61,SSE,159,0.0,1.0,79,0.00,,,0.00,meteohub,2013-03-20 08:32:00,
2013-03-20 01:42:00,12.4,7.3,30.61,SSE,159,0.0,0.0,80,0.00,,,0.00,meteohub,2013-03-20 08:42:00,
2013-03-20 01:52:00,12.2,7.0,30.61,SSE,159,0.0,0.0,79,0.00,,,0.00,meteohub,2013-03-20 08:52:00,
2013-03-20 01:57:00,12.2,7.0,30.61,SSE,159,0.0,0.0,79,0.00,,,0.00,meteohub,2013-03-20 08:57:00,
2013-03-20 02:07:00,12.6,7.0,30.61,SSE,159,0.0,0.0,78,0.00,,,0.00,meteohub,2013-03-20 09:07:00,
2013-03-20 02:12:00,12.7,7.0,30.61,SSE,159,1.0,0.0,77,0.00,,,0.00,meteohub,2013-03-20 09:12:00,
2013-03-20 02:17:00,12.4,6.3,30.61,SSE,159,0.0,2.0,76,0.00,,,0.00,meteohub,2013-03-20 09:17:00,
2013-03-20 02:22:00,12.4,6.8,30.61,SSE,159,1.0,2.0,78,0.00,,,0.00,meteohub,2013-03-20 09:22:00,
2013-03-20 02:32:00,11.7,6.4,30.61,SSE,159,0.0,2.0,79,0.00,,,0.00,meteohub,2013-03-20 09:32:00,
2013-03-20 02:37:00,11.8,6.8,30.61,SSE,159,0.0,2.0,80,0.00,,,0.00,meteohub,2013-03-20 09:37:00,
2013-03-20 02:42:00,12.4,7.2,30.61,SSE,159,0.0,2.0,79,0.00,,,0.00,meteohub,2013-03-20 09:42:00,
2013-03-20 02:47:00,11.8,5.7,30.60,SSE,159,0.0,2.0,76,0.00,,,0.00,meteohub,2013-03-20 09:47:00,
2013-03-20 02:52:00,11.5,5.9,30.61,SSE,159,0.0,2.0,78,0.00,,,0.00,meteohub,2013-03-20 09:52:00,
2013-03-20 02:57:00,11.3,6.1,30.60,SSE,159,0.0,2.0,79,0.00,,,0.00,meteohub,2013-03-20 09:57:00,
2013-03-20 03:02:00,11.3,6.3,30.61,SSE,159,0.0,1.0,80,0.00,,,0.00,meteohub,2013-03-20 10:02:00,
2013-03-20 03:07:00,11.3,6.3,30.61,SSE,159,0.0,1.0,80,0.00,,,0.00,meteohub,2013-03-20 10:07:00,
2013-03-20 03:12:00,11.3,6.6,30.60,SSE,159,0.0,1.0,81,0.00,,,0.00,meteohub,2013-03-20 10:12:00,
2013-03-20 03:17:00,11.5,6.4,30.60,SSE,159,0.0,1.0,80,0.00,,,0.00,meteohub,2013-03-20 10:17:00,
2013-03-20 03:22:00,11.5,6.4,30.60,SSE,159,0.0,0.0,80,0.00,,,0.00,meteohub,2013-03-20 10:22:00,
2013-03-20 03:32:00,11.7,7.0,30.60,SSE,159,0.0,0.0,81,0.00,,,0.00,meteohub,2013-03-20 10:32:00,
2013-03-20 03:42:00,11.7,6.6,30.60,SSE,159,0.0,0.0,80,0.00,,,0.00,meteohub,2013-03-20 10:42:00,
2013-03-20 03:47:00,11.7,6.1,30.60,SSE,159,0.0,0.0,78,0.00,,,0.00,meteohub,2013-03-20 10:47:00,
2013-03-20 03:52:00,11.1,5.4,30.60,SSE,159,0.0,1.0,77,0.00,,,0.00,meteohub,2013-03-20 10:52:00,
2013-03-20 04:02:00,10.8,5.0,30.60,SSE,159,0.0,1.0,77,0.00,,,0.00,meteohub,2013-03-20 11:02:00,
2013-03-20 04:07:00,10.8,5.5,30.60,SSE,159,0.0,1.0,79,0.00,,,0.00,meteohub,2013-03-20 11:07:00,
2013-03-20 04:12:00,10.6,5.4,30.60,SSE,159,0.0,0.0,79,0.00,,,0.00,meteohub,2013-03-20 11:12:00,
2013-03-20 04:17:00,10.6,5.4,30.61,SSE,159,0.0,0.0,79,0.00,,,0.00,meteohub,2013-03-20 11:17:00,
2013-03-20 04:22:00,10.4,5.5,30.60,SSE,159,0.0,0.0,80,0.00,,,0.00,meteohub,2013-03-20 11:22:00,
2013-03-20 04:32:00,10.0,4.8,30.61,SSE,159,0.0,0.0,79,0.00,,,0.00,meteohub,2013-03-20 11:32:00,
2013-03-20 04:37:00,9.9,4.5,30.61,SSE,159,0.0,0.0,78,0.00,,,0.00,meteohub,2013-03-20 11:37:00,
2013-03-20 04:42:00,9.7,4.8,30.61,SSE,159,0.0,1.0,80,0.00,,,0.00,meteohub,2013-03-20 11:42:00,
2013-03-20 04:47:00,9.5,4.8,30.61,SSE,159,0.0,1.0,81,0.00,,,0.00,meteohub,2013-03-20 11:47:00,
2013-03-20 04:57:00,9.1,4.3,30.61,SSE,159,0.0,0.0,80,0.00,,,0.00,meteohub,2013-03-20 11:57:00,
2013-03-20 05:02:00,9.0,4.1,30.62,SSE,159,0.0,0.0,80,0.00,,,0.00,meteohub,2013-03-20 12:02:00,
2013-03-20 05:12:00,9.1,5.0,30.62,SSE,159,0.0,0.0,83,0.00,,,0.00,meteohub,2013-03-20 12:12:00,
2013-03-20 05:17:00,9.7,5.9,30.63,SSE,159,0.0,1.0,84,0.00,,,0.00,meteohub,2013-03-20 12:17:00,
2013-03-20 05:27:00,9.3,3.9,30.63,SSE,159,0.0,1.0,78,0.00,,,0.00,meteohub,2013-03-20 12:27:00,
2013-03-20 05:37:00,8.2,3.6,30.63,SSE,159,0.0,1.0,81,0.00,,,0.00,meteohub,2013-03-20 12:37:00,
2013-03-20 05:47:00,8.2,4.1,30.63,SSE,159,0.0,1.0,83,0.00,,,0.00,meteohub,2013-03-20 12:47:00,
2013-03-20 05:52:00,8.2,4.5,30.63,SSE,159,0.0,1.0,84,0.00,,,0.00,meteohub,2013-03-20 12:52:00,
2013-03-20 06:02:00,8.2,3.9,30.63,SSE,159,0.0,1.0,82,0.00,,,0.00,meteohub,2013-03-20 13:02:00,
2013-03-20 06:07:00,8.1,3.7,30.63,SSE,159,0.0,1.0,82,0.00,,,0.00,meteohub,2013-03-20 13:07:00,
2013-03-20 06:12:00,7.9,3.2,30.64,SSE,159,0.0,1.0,81,0.00,,,0.00,meteohub,2013-03-20 13:12:00,
2013-03-20 06:22:00,7.5,3.4,30.64,SSE,159,0.0,1.0,83,0.00,,,0.00,meteohub,2013-03-20 13:22:00,
2013-03-20 06:27:00,7.7,3.9,30.64,SSE,159,0.0,0.0,84,0.00,,,0.00,meteohub,2013-03-20 13:27:00,
2013-03-20 06:32:00,7.9,3.7,30.64,SSE,159,0.0,0.0,83,0.00,,,0.00,meteohub,2013-03-20 13:32:00,
2013-03-20 06:42:00,7.7,3.6,30.65,SSE,159,0.0,1.0,83,0.00,,,0.00,meteohub,2013-03-20 13:42:00,
2013-03-20 06:52:00,8.2,5.0,30.65,SSE,159,0.0,0.0,86,0.00,,,0.00,meteohub,2013-03-20 13:52:00,
2013-03-20 06:57:00,8.4,4.1,30.65,SSE,159,0.0,1.0,82,0.00,,,0.00,meteohub,2013-03-20 13:57:00,
2013-03-20 07:07:00,8.8,4.5,30.66,SSE,159,0.0,1.0,82,0.00,,,0.00,meteohub,2013-03-20 14:07:00,
2013-03-20 07:12:00,9.1,5.0,30.66,SSE,159,0.0,1.0,83,0.00,,,0.00,meteohub,2013-03-20 14:12:00,
2013-03-20 07:22:00,10.0,5.7,30.66,SSE,159,0.0,0.0,82,0.00,,,0.00,meteohub,2013-03-20 14:22:00,
2013-03-20 07:32:00,11.3,6.3,30.65,SSE,159,0.0,0.0,80,0.00,,,0.00,meteohub,2013-03-20 14:32:00,
2013-03-20 07:37:00,11.7,6.6,30.65,SSE,159,0.0,0.0,80,0.00,,,0.00,meteohub,2013-03-20 14:37:00,
2013-03-20 07:42:00,12.2,6.6,30.65,SSE,159,0.0,0.0,78,0.00,,,0.00,meteohub,2013-03-20 14:42:00,
2013-03-20 07:47:00,12.6,7.0,30.65,SSE,159,0.0,0.0,78,0.00,,,0.00,meteohub,2013-03-20 14:47:00,
2013-03-20 07:57:00,13.6,8.4,30.64,SSE,159,2.0,2.0,79,0.00,,,0.00,meteohub,2013-03-20 14:57:00,
2013-03-20 08:07:00,14.9,9.0,30.64,SSE,159,1.0,2.0,77,0.00,,,0.00,meteohub,2013-03-20 15:07:00,
2013-03-20 08:17:00,15.6,8.8,30.64,SSE,159,0.0,2.0,74,0.00,,,0.00,meteohub,2013-03-20 15:17:00,
2013-03-20 08:22:00,16.3,8.6,30.64,SSE,159,0.0,2.0,71,0.00,,,0.00,meteohub,2013-03-20 15:22:00,
2013-03-20 08:27:00,17.2,8.8,30.63,SSE,159,0.0,2.0,69,0.00,,,0.00,meteohub,2013-03-20 15:27:00,
2013-03-20 08:32:00,18.1,7.0,30.63,SSE,159,0.0,2.0,61,0.00,,,0.00,meteohub,2013-03-20 15:32:00,
2013-03-20 08:42:00,19.2,9.7,30.62,SSE,168,2.0,3.0,66,0.00,,,0.00,meteohub,2013-03-20 15:42:00,
2013-03-20 08:47:00,19.2,8.8,30.62,SSE,168,2.0,3.0,63,0.00,,,0.00,meteohub,2013-03-20 15:47:00,
2013-03-20 08:57:00,19.9,8.6,30.61,SSE,168,1.0,3.0,61,0.00,,,0.00,meteohub,2013-03-20 15:57:00,
2013-03-20 09:02:00,20.7,9.7,30.61,SSW,202,1.0,3.0,62,0.00,,,0.00,meteohub,2013-03-20 16:02:00,
2013-03-20 09:12:00,21.9,8.2,30.61,SSW,203,1.0,4.0,55,0.00,,,0.00,meteohub,2013-03-20 16:12:00,
2013-03-20 09:17:00,22.3,7.3,30.61,SSW,203,2.0,4.0,52,0.00,,,0.00,meteohub,2013-03-20 16:17:00,
2013-03-20 09:22:00,22.5,8.8,30.61,SSW,210,2.0,3.0,55,0.00,,,0.00,meteohub,2013-03-20 16:22:00,
2013-03-20 09:27:00,23.2,9.0,30.61,WSW,238,3.0,3.0,54,0.00,,,0.00,meteohub,2013-03-20 16:27:00,
2013-03-20 09:37:00,24.3,7.0,30.60,WSW,257,2.0,3.0,47,0.00,,,0.00,meteohub,2013-03-20 16:37:00,
2013-03-20 09:47:00,25.3,9.7,30.60,West,259,2.0,4.0,51,0.00,,,0.00,meteohub,2013-03-20 16:47:00,
2013-03-20 09:52:00,26.1,9.1,30.60,West,259,0.0,4.0,48,0.00,,,0.00,meteohub,2013-03-20 16:52:00,
2013-03-20 09:57:00,26.8,9.3,30.59,West,259,1.0,4.0,47,0.00,,,0.00,meteohub,2013-03-20 16:57:00,
2013-03-20 10:02:00,27.3,9.3,30.59,West,259,0.0,3.0,46,0.00,,,0.00,meteohub,2013-03-20 17:02:00,
2013-03-20 10:12:00,28.8,9.7,30.59,West,259,0.0,3.0,44,0.00,,,0.00,meteohub,2013-03-20 17:12:00,
2013-03-20 10:17:00,29.1,9.3,30.58,West,259,0.0,3.0,43,0.00,,,0.00,meteohub,2013-03-20 17:17:00,
2013-03-20 10:27:00,30.4,10.0,30.58,West,259,0.0,3.0,42,0.00,,,0.00,meteohub,2013-03-20 17:27:00,
2013-03-20 10:32:00,31.1,11.7,30.57,West,259,0.0,3.0,44,0.00,,,0.00,meteohub,2013-03-20 17:32:00,
2013-03-20 10:37:00,31.6,11.7,30.57,West,259,1.0,2.0,43,0.00,,,0.00,meteohub,2013-03-20 17:37:00,
2013-03-20 10:42:00,32.2,10.0,30.57,West,259,0.0,3.0,39,0.00,,,0.00,meteohub,2013-03-20 17:42:00,
2013-03-20 10:47:00,32.2,11.1,30.56,West,259,1.0,3.0,41,0.00,,,0.00,meteohub,2013-03-20 17:47:00,
2013-03-20 10:52:00,32.4,10.2,30.56,WNW,289,1.0,3.0,39,0.00,,,0.00,meteohub,2013-03-20 17:52:00,
2013-03-20 10:57:00,32.7,11.7,30.56,WNW,289,2.0,5.0,41,0.00,,,0.00,meteohub,2013-03-20 17:57:00,
2013-03-20 11:07:00,32.7,10.4,30.54,WNW,290,2.0,4.0,39,0.00,,,0.00,meteohub,2013-03-20 18:07:00,
2013-03-20 11:12:00,32.9,13.8,30.55,WNW,287,2.0,5.0,45,0.00,,,0.00,meteohub,2013-03-20 18:12:00,
2013-03-20 11:17:00,33.3,13.6,30.55,West,267,6.0,6.0,44,0.00,,,0.00,meteohub,2013-03-20 18:17:00,
2013-03-20 11:22:00,33.1,13.5,30.54,West,265,3.0,6.0,44,0.00,,,0.00,meteohub,2013-03-20 18:22:00,
2013-03-20 11:27:00,33.1,15.4,30.53,West,266,2.0,6.0,48,0.00,,,0.00,meteohub,2013-03-20 18:27:00,
2013-03-20 11:32:00,33.3,14.2,30.53,West,266,2.0,6.0,45,0.00,,,0.00,meteohub,2013-03-20 18:32:00,
2013-03-20 11:42:00,33.3,13.6,30.53,West,265,1.0,5.0,44,0.00,,,0.00,meteohub,2013-03-20 18:42:00,
2013-03-20 11:47:00,33.4,12.7,30.53,West,265,1.0,5.0,42,0.00,,,0.00,meteohub,2013-03-20 18:47:00,
2013-03-20 11:52:00,34.0,13.3,30.53,West,265,1.0,5.0,42,0.00,,,0.00,meteohub,2013-03-20 18:52:00,
2013-03-20 12:02:00,34.3,14.2,30.53,West,265,2.0,4.0,43,0.00,,,0.00,meteohub,2013-03-20 19:02:00,
2013-03-20 12:07:00,34.3,14.2,30.52,West,265,0.0,3.0,43,0.00,,,0.00,meteohub,2013-03-20 19:07:00,
2013-03-20 12:12:00,34.5,13.3,30.51,West,263,2.0,3.0,41,0.00,,,0.00,meteohub,2013-03-20 19:12:00,
2013-03-20 12:17:00,34.3,14.2,30.52,West,263,1.0,3.0,43,0.00,,,0.00,meteohub,2013-03-20 19:17:00,
2013-03-20 12:22:00,34.9,15.6,30.51,West,263,3.0,4.0,45,0.00,,,0.00,meteohub,2013-03-20 19:22:00,
2013-03-20 12:27:00,35.2,14.9,30.51,WSW,255,1.0,4.0,43,0.00,,,0.00,meteohub,2013-03-20 19:27:00,
2013-03-20 12:37:00,36.1,14.7,30.49,WSW,255,0.0,5.0,41,0.00,,,0.00,meteohub,2013-03-20 19:37:00,
2013-03-20 12:42:00,36.7,12.9,30.49,WSW,248,1.0,4.0,37,0.00,,,0.00,meteohub,2013-03-20 19:42:00,
2013-03-20 12:47:00,36.1,14.2,30.49,WSW,248,1.0,3.0,40,0.00,,,0.00,meteohub,2013-03-20 19:47:00,
2013-03-20 12:52:00,36.5,13.8,30.49,WSW,248,0.0,3.0,39,0.00,,,0.00,meteohub,2013-03-20 19:52:00,
2013-03-20 12:57:00,37.0,14.4,30.49,WSW,248,0.0,3.0,39,0.00,,,0.00,meteohub,2013-03-20 19:57:00,
2013-03-20 13:07:00,38.1,14.7,30.48,WSW,248,0.0,2.0,38,0.00,,,0.00,meteohub,2013-03-20 20:07:00,
2013-03-20 13:12:00,38.7,12.7,30.48,WSW,248,1.0,2.0,34,0.00,,,0.00,meteohub,2013-03-20 20:12:00,
2013-03-20 13:17:00,38.8,12.9,30.47,WSW,248,2.0,2.0,34,0.00,,,0.00,meteohub,2013-03-20 20:17:00,
2013-03-20 13:22:00,38.7,14.0,30.46,WSW,248,1.0,3.0,36,0.00,,,0.00,meteohub,2013-03-20 20:22:00,
2013-03-20 13:32:00,37.9,16.3,30.46,WSW,248,3.0,4.0,41,0.00,,,0.00,meteohub,2013-03-20 20:32:00,
2013-03-20 13:42:00,37.9,15.8,30.46,WSW,248,2.0,4.0,40,0.00,,,0.00,meteohub,2013-03-20 20:42:00,
2013-03-20 13:47:00,37.9,14.0,30.45,WSW,248,0.0,4.0,37,0.00,,,0.00,meteohub,2013-03-20 20:47:00,
2013-03-20 13:57:00,39.0,17.2,30.45,WSW,248,0.0,3.0,41,0.00,,,0.00,meteohub,2013-03-20 20:57:00,
2013-03-20 14:02:00,39.6,16.0,30.45,NW,307,2.0,3.0,38,0.00,,,0.00,meteohub,2013-03-20 21:02:00,
2013-03-20 14:07:00,39.9,15.1,30.44,NW,307,2.0,5.0,36,0.00,,,0.00,meteohub,2013-03-20 21:07:00,
2013-03-20 14:12:00,40.6,19.4,30.44,West,280,4.0,8.0,42,0.00,,,0.00,meteohub,2013-03-20 21:12:00,
2013-03-20 14:17:00,40.6,15.8,30.43,NW,310,3.0,8.0,36,0.00,,,0.00,meteohub,2013-03-20 21:17:00,
2013-03-20 14:27:00,40.8,16.5,30.43,NW,315,2.0,8.0,37,0.00,,,0.00,meteohub,2013-03-20 21:27:00,
2013-03-20 14:32:00,40.6,17.1,30.43,NW,315,2.0,8.0,38,0.00,,,0.00,meteohub,2013-03-20 21:32:00,
2013-03-20 14:37:00,40.6,18.1,30.43,NW,304,5.0,8.0,40,0.00,,,0.00,meteohub,2013-03-20 21:37:00,
2013-03-20 14:42:00,41.2,20.8,30.42,NW,315,6.0,7.0,44,0.00,,,0.00,meteohub,2013-03-20 21:42:00,
2013-03-20 14:47:00,41.5,24.8,30.42,NW,310,10.0,10.0,51,0.00,,,0.00,meteohub,2013-03-20 21:47:00,
2013-03-20 14:52:00,41.5,25.2,30.42,NW,314,4.0,13.0,52,0.00,,,0.00,meteohub,2013-03-20 21:52:00,
2013-03-20 15:02:00,41.0,24.8,30.41,NW,317,6.0,13.0,52,0.00,,,0.00,meteohub,2013-03-20 22:02:00,
2013-03-20 15:12:00,40.5,25.5,30.41,WNW,287,4.0,9.0,55,0.00,,,0.00,meteohub,2013-03-20 22:12:00,
2013-03-20 15:17:00,40.3,25.3,30.40,NW,313,7.0,10.0,55,0.00,,,0.00,meteohub,2013-03-20 22:17:00,
2013-03-20 15:22:00,40.5,26.1,30.40,NW,316,5.0,10.0,56,0.00,,,0.00,meteohub,2013-03-20 22:22:00,
2013-03-20 15:32:00,40.6,25.7,30.40,NW,309,5.0,11.0,55,0.00,,,0.00,meteohub,2013-03-20 22:32:00,
2013-03-20 15:37:00,40.6,26.6,30.39,NW,309,4.0,11.0,57,0.00,,,0.00,meteohub,2013-03-20 22:37:00,
2013-03-20 15:42:00,40.6,25.7,30.39,NW,315,4.0,11.0,55,0.00,,,0.00,meteohub,2013-03-20 22:42:00,
2013-03-20 15:47:00,40.5,25.5,30.39,NW,312,2.0,7.0,55,0.00,,,0.00,meteohub,2013-03-20 22:47:00,
2013-03-20 15:57:00,41.0,25.7,30.39,North,5,8.0,8.0,54,0.00,,,0.00,meteohub,2013-03-20 22:57:00,
2013-03-20 16:02:00,41.4,25.0,30.38,WNW,290,7.0,10.0,52,0.00,,,0.00,meteohub,2013-03-20 23:02:00,
2013-03-20 16:07:00,41.5,25.2,30.38,NNE,15,4.0,10.0,52,0.00,,,0.00,meteohub,2013-03-20 23:07:00,
2013-03-20 16:17:00,40.8,25.5,30.38,North,10,6.0,14.0,54,0.00,,,0.00,meteohub,2013-03-20 23:17:00,
2013-03-20 16:22:00,40.8,26.4,30.38,NE,38,6.0,14.0,56,0.00,,,0.00,meteohub,2013-03-20 23:22:00,
2013-03-20 16:27:00,40.6,25.3,30.38,NNE,29,4.0,14.0,54,0.00,,,0.00,meteohub,2013-03-20 23:27:00,
2013-03-20 16:32:00,40.6,26.2,30.38,NW,308,9.0,10.0,56,0.00,,,0.00,meteohub,2013-03-20 23:32:00,
2013-03-20 16:42:00,40.5,25.5,30.37,NW,322,8.0,13.0,55,0.00,,,0.00,meteohub,2013-03-20 23:42:00,
2013-03-20 16:47:00,40.5,26.1,30.38,NNE,19,4.0,13.0,56,0.00,,,0.00,meteohub,2013-03-20 23:47:00,
2013-03-20 16:52:00,40.3,26.2,30.38,North,11,8.0,12.0,57,0.00,,,0.00,meteohub,2013-03-20 23:52:00,
2013-03-20 17:02:00,39.6,26.1,30.38,NNE,20,6.0,10.0,58,0.00,,,0.00,meteohub,2013-03-21 00:02:00,
2013-03-20 17:12:00,39.4,26.6,30.38,NNE,22,4.0,12.0,60,0.00,,,0.00,meteohub,2013-03-21 00:12:00,
2013-03-20 17:17:00,38.8,27.3,30.38,North,349,4.0,12.0,63,0.00,,,0.00,meteohub,2013-03-21 00:17:00,
2013-03-20 17:22:00,38.1,27.9,30.38,NW,309,3.0,12.0,66,0.00,,,0.00,meteohub,2013-03-21 00:22:00,
2013-03-20 17:32:00,36.1,28.9,30.38,NE,36,8.0,18.0,75,0.00,,,0.00,meteohub,2013-03-21 00:32:00,
2013-03-20 17:42:00,35.4,29.3,30.38,ENE,70,8.0,13.0,78,0.00,,,0.00,meteohub,2013-03-21 00:42:00,
2013-03-20 17:47:00,35.4,29.3,30.38,ENE,71,5.0,11.0,78,0.00,,,0.00,meteohub,2013-03-21 00:47:00,
2013-03-20 17:57:00,35.4,28.9,30.38,NE,46,4.0,11.0,77,0.00,,,0.00,meteohub,2013-03-21 00:57:00,
2013-03-20 18:02:00,35.2,29.1,30.38,NE,37,1.0,11.0,78,0.00,,,0.00,meteohub,2013-03-21 01:02:00,
2013-03-20 18:07:00,35.2,29.1,30.38,WNW,291,3.0,11.0,78,0.00,,,0.00,meteohub,2013-03-21 01:07:00,
2013-03-20 18:12:00,35.2,29.1,30.38,West,277,4.0,8.0,78,0.00,,,0.00,meteohub,2013-03-21 01:12:00,
2013-03-20 18:17:00,35.2,29.1,30.38,WNW,282,4.0,7.0,78,0.00,,,0.00,meteohub,2013-03-21 01:17:00,
2013-03-20 18:22:00,35.1,29.1,30.38,NW,320,1.0,7.0,79,0.00,,,0.00,meteohub,2013-03-21 01:22:00,
2013-03-20 18:37:00,35.1,29.1,30.37,NW,309,2.0,5.0,79,0.00,,,0.00,meteohub,2013-03-21 01:37:00,
2013-03-20 18:42:00,35.1,29.1,30.36,NW,313,1.0,5.0,79,0.00,,,0.00,meteohub,2013-03-21 01:42:00,
2013-03-20 18:47:00,35.1,28.9,30.36,NW,315,0.0,4.0,78,0.00,,,0.00,meteohub,2013-03-21 01:47:00,
2013-03-20 18:52:00,35.1,29.1,30.36,NW,315,1.0,4.0,79,0.00,,,0.00,meteohub,2013-03-21 01:52:00,
2013-03-20 18:57:00,35.1,29.1,30.37,WNW,295,2.0,5.0,79,0.00,,,0.00,meteohub,2013-03-21 01:57:00,
2013-03-20 19:02:00,35.1,29.1,30.37,NW,309,0.0,5.0,79,0.00,,,0.00,meteohub,2013-03-21 02:02:00,
2013-03-20 19:07:00,34.9,29.1,30.37,North,349,3.0,5.0,79,0.00,,,0.00,meteohub,2013-03-21 02:07:00,
2013-03-20 19:12:00,34.7,29.1,30.37,NNW,327,2.0,5.0,80,0.00,,,0.00,meteohub,2013-03-21 02:12:00,
2013-03-20 19:22:00,34.2,29.5,30.36,NW,313,2.0,4.0,83,0.00,,,0.00,meteohub,2013-03-21 02:22:00,
2013-03-20 19:27:00,33.8,29.5,30.36,NW,313,0.0,4.0,84,0.00,,,0.00,meteohub,2013-03-21 02:27:00,
2013-03-20 19:32:00,33.6,29.3,30.37,NW,320,0.0,4.0,84,0.00,,,0.00,meteohub,2013-03-21 02:32:00,
2013-03-20 19:37:00,33.6,29.7,30.36,NW,320,0.0,4.0,85,0.00,,,0.00,meteohub,2013-03-21 02:37:00,
2013-03-20 19:42:00,33.4,29.5,30.36,NW,320,0.0,4.0,85,0.00,,,0.00,meteohub,2013-03-21 02:42:00,
2013-03-20 19:52:00,33.3,29.5,30.36,NW,320,0.0,1.0,86,0.00,,,0.00,meteohub,2013-03-21 02:52:00,
2013-03-20 19:57:00,33.1,29.3,30.36,NW,320,0.0,1.0,86,0.00,,,0.00,meteohub,2013-03-21 02:57:00,
2013-03-20 20:02:00,33.1,29.3,30.35,NW,320,0.0,0.0,86,0.00,,,0.00,meteohub,2013-03-21 03:02:00,
2013-03-20 20:12:00,32.7,28.9,30.35,NW,320,0.0,0.0,86,0.00,,,0.00,meteohub,2013-03-21 03:12:00,
2013-03-20 20:22:00,32.5,28.8,30.35,NW,320,1.0,2.0,86,0.00,,,0.00,meteohub,2013-03-21 03:22:00,
2013-03-20 20:27:00,32.5,28.8,30.35,NW,320,1.0,2.0,86,0.00,,,0.00,meteohub,2013-03-21 03:27:00,
2013-03-20 20:32:00,32.5,28.8,30.35,NW,320,2.0,2.0,86,0.00,,,0.00,meteohub,2013-03-21 03:32:00,
2013-03-20 20:37:00,32.5,28.6,30.35,NW,320,2.0,3.0,85,0.00,,,0.00,meteohub,2013-03-21 03:37:00,
2013-03-20 20:42:00,32.5,28.6,30.34,NW,321,1.0,3.0,85,0.00,,,0.00,meteohub,2013-03-21 03:42:00,
2013-03-20 20:47:00,32.2,28.8,30.34,NW,321,0.0,3.0,87,0.00,,,0.00,meteohub,2013-03-21 03:47:00,
2013-03-20 20:57:00,31.8,28.4,30.35,NW,321,0.0,2.0,87,0.00,,,0.00,meteohub,2013-03-21 03:57:00,
2013-03-20 21:02:00,31.6,28.2,30.34,NW,321,0.0,0.0,87,0.00,,,0.00,meteohub,2013-03-21 04:02:00,
2013-03-20 21:12:00,31.5,28.0,30.33,NW,321,0.0,1.0,87,0.00,,,0.00,meteohub,2013-03-21 04:12:00,
2013-03-20 21:17:00,31.3,27.9,30.34,NW,321,0.0,1.0,87,0.00,,,0.00,meteohub,2013-03-21 04:17:00,
2013-03-20 21:27:00,30.9,27.5,30.33,NW,321,0.0,1.0,87,0.00,,,0.00,meteohub,2013-03-21 04:27:00,
2013-03-20 21:32:00,30.6,27.5,30.33,NW,321,0.0,2.0,88,0.00,,,0.00,meteohub,2013-03-21 04:32:00,
2013-03-20 21:37:00,30.4,27.0,30.33,NW,321,0.0,2.0,87,0.00,,,0.00,meteohub,2013-03-21 04:37:00,
2013-03-20 21:47:00,30.0,27.0,30.32,NW,321,0.0,1.0,88,0.00,,,0.00,meteohub,2013-03-21 04:47:00,
2013-03-20 21:52:00,29.8,26.8,30.32,NW,321,1.0,1.0,88,0.00,,,0.00,meteohub,2013-03-21 04:52:00,
2013-03-20 21:57:00,29.7,26.6,30.32,NW,321,0.0,2.0,88,0.00,,,0.00,meteohub,2013-03-21 04:57:00,
2013-03-20 22:02:00,29.5,26.6,30.32,NW,321,0.0,2.0,89,0.00,,,0.00,meteohub,2013-03-21 05:02:00,
2013-03-20 22:07:00,29.3,26.4,30.31,NW,321,0.0,2.0,89,0.00,,,0.00,meteohub,2013-03-21 05:07:00,
2013-03-20 22:17:00,29.1,26.2,30.31,NW,321,0.0,0.0,89,0.00,,,0.00,meteohub,2013-03-21 05:17:00,
2013-03-20 22:22:00,28.9,26.1,30.30,NW,321,0.0,0.0,89,0.00,,,0.00,meteohub,2013-03-21 05:22:00,
2013-03-20 22:32:00,28.8,26.2,30.30,NW,321,0.0,2.0,90,0.00,,,0.00,meteohub,2013-03-21 05:32:00,
2013-03-20 22:37:00,28.8,26.2,30.30,NW,321,0.0,2.0,90,0.00,,,0.00,meteohub,2013-03-21 05:37:00,
2013-03-20 22:42:00,28.4,25.5,30.30,NW,321,1.0,2.0,89,0.00,,,0.00,meteohub,2013-03-21 05:42:00,
2013-03-20 22:52:00,28.0,25.5,30.29,NW,321,0.0,1.0,90,0.00,,,0.00,meteohub,2013-03-21 05:52:00,
2013-03-20 23:02:00,27.9,25.5,30.29,NW,321,0.0,2.0,91,0.00,,,0.00,meteohub,2013-03-21 06:02:00,
2013-03-20 23:07:00,27.9,25.5,30.28,NW,323,1.0,2.0,91,0.00,,,0.00,meteohub,2013-03-21 06:07:00,
2013-03-20 23:12:00,27.9,25.5,30.28,NW,323,0.0,3.0,91,0.00,,,0.00,meteohub,2013-03-21 06:12:00,
2013-03-20 23:17:00,27.9,25.5,30.28,NW,323,0.0,3.0,91,0.00,,,0.00,meteohub,2013-03-21 06:17:00,
2013-03-20 23:27:00,27.9,25.5,30.28,NW,323,0.0,1.0,91,0.00,,,0.00,meteohub,2013-03-21 06:27:00,
2013-03-20 23:42:00,27.5,25.2,30.28,NW,323,0.0,0.0,91,0.00,,,0.00,meteohub,2013-03-21 06:42:00,
2013-03-20 23:47:00,27.3,25.0,30.28,NW,323,0.0,0.0,91,0.00,,,0.00,meteohub,2013-03-21 06:47:00,
2013-03-20 23:52:00,27.1,24.8,30.27,NW,323,0.0,0.0,91,0.00,,,0.00,meteohub,2013-03-21 06:52:00,